createdAt,value
2023-04-07T00:00:45.626Z,3.22
2023-04-07T00:03:17.856Z,3.15
2023-04-07T00:05:49.624Z,3.35
2023-04-07T00:08:21.565Z,3.12
2023-04-07T00:10:52.964Z,6.45
2023-04-07T00:13:24.405Z,3.12
2023-04-07T00:15:56.063Z,2.75
2023-04-07T00:18:27.715Z,3.30
2023-04-07T00:20:59.125Z,2.33
2023-04-07T00:23:31.605Z,3.15
2023-04-07T00:26:03.026Z,3.65
2023-04-07T00:28:34.907Z,4.00
2023-04-07T00:31:06.518Z,2.92
2023-04-07T00:33:38.125Z,1.87
2023-04-07T00:36:10.097Z,2.55
2023-04-07T00:38:41.624Z,2.15
2023-04-07T00:41:13.184Z,3.92
2023-04-07T00:43:46.184Z,3.02
2023-04-07T00:46:17.951Z,4.92
2023-04-07T00:48:49.379Z,3.17
2023-04-07T00:51:22.918Z,3.55
2023-04-07T00:53:55.564Z,3.47
2023-04-07T00:56:28.295Z,2.85
2023-04-07T00:58:59.776Z,3.40
2023-04-07T01:01:35.672Z,3.83
2023-04-07T01:04:09.673Z,3.15
2023-04-07T01:06:44.417Z,5.62
2023-04-07T01:09:19.619Z,3.70
2023-04-07T01:11:54.609Z,2.95
2023-04-07T01:14:28.440Z,4.20
2023-04-07T01:17:01.648Z,3.37
2023-04-07T01:19:38.299Z,4.12
2023-04-07T01:22:13.230Z,3.72
2023-04-07T01:25:05.825Z,4.78
2023-04-07T01:27:40.904Z,4.62
2023-04-07T01:30:15.734Z,3.33
2023-04-07T01:32:50.397Z,2.98
2023-04-07T01:35:23.608Z,5.05
2023-04-07T01:37:56.476Z,3.52
2023-04-07T01:40:29.349Z,3.52
2023-04-07T01:43:02.384Z,4.22
2023-04-07T01:45:35.502Z,3.55
2023-04-07T01:48:09.503Z,3.27
2023-04-07T01:50:41.756Z,4.17
2023-04-07T01:53:13.421Z,3.75
2023-04-07T01:55:45.785Z,3.15
2023-04-07T01:58:17.262Z,4.83
2023-04-07T02:00:50.842Z,4.37
2023-04-07T02:03:25.687Z,3.52
2023-04-07T02:05:59.392Z,3.70
2023-04-07T02:08:32.357Z,5.50
2023-04-07T02:11:04.796Z,5.85
2023-04-07T02:13:38.380Z,6.92
2023-04-07T02:16:11.758Z,4.85
2023-04-07T02:18:44.753Z,4.47
2023-04-07T02:21:18.584Z,4.37
2023-04-07T02:23:50.803Z,5.60
2023-04-07T02:26:22.313Z,5.45
2023-04-07T02:28:53.855Z,4.45
2023-04-07T02:31:25.380Z,3.98
2023-04-07T02:33:56.887Z,4.47
2023-04-07T02:36:28.575Z,5.45
2023-04-07T02:39:00.396Z,5.15
2023-04-07T02:41:31.931Z,5.12
2023-04-07T02:44:03.458Z,3.80
2023-04-07T02:46:35.001Z,4.37
2023-04-07T02:49:06.632Z,5.92
2023-04-07T02:51:38.088Z,5.12
2023-04-07T02:54:09.632Z,5.42
2023-04-07T02:56:41.150Z,10.80
2023-04-07T02:59:12.738Z,5.10
2023-04-07T03:01:44.315Z,4.42
2023-04-07T03:04:16.727Z,4.97
2023-04-07T03:06:49.219Z,4.08
2023-04-07T03:09:20.601Z,4.67
2023-04-07T03:11:52.102Z,10.32
2023-04-07T03:14:23.615Z,6.47
2023-04-07T03:16:56.514Z,3.98
2023-04-07T03:19:28.087Z,9.78
2023-04-07T03:21:59.643Z,5.20
2023-04-07T03:24:31.211Z,5.55
2023-04-07T03:27:02.742Z,7.20
2023-04-07T03:29:34.150Z,5.87
2023-04-07T03:32:06.098Z,7.45
2023-04-07T03:34:37.516Z,3.85
2023-04-07T03:37:08.991Z,8.15
2023-04-07T03:39:41.004Z,6.58
2023-04-07T03:42:12.550Z,6.17
2023-04-07T03:44:44.030Z,5.60
2023-04-07T03:47:16.299Z,4.35
2023-04-07T03:49:47.866Z,5.08
2023-04-07T03:52:19.413Z,6.40
2023-04-07T03:54:51.174Z,5.75
2023-04-07T03:57:22.860Z,9.55
2023-04-07T03:59:55.340Z,5.90
2023-04-07T04:02:30.117Z,4.75
2023-04-07T04:05:01.749Z,5.70
2023-04-07T04:07:33.737Z,4.12
2023-04-07T04:10:06.065Z,5.30
2023-04-07T04:12:37.696Z,6.30
2023-04-07T04:15:11.276Z,5.47
2023-04-07T04:17:42.787Z,6.78
2023-04-07T04:20:14.709Z,7.37
2023-04-07T04:22:46.374Z,5.28
2023-04-07T04:25:18.763Z,6.53
2023-04-07T04:27:50.534Z,6.60
2023-04-07T04:30:22.267Z,5.92
2023-04-07T04:32:54.007Z,5.55
2023-04-07T04:35:25.977Z,7.45
2023-04-07T04:37:57.622Z,5.00
2023-04-07T04:40:29.209Z,5.00
2023-04-07T04:43:00.791Z,6.33
2023-04-07T04:45:32.595Z,5.90
2023-04-07T04:48:04.126Z,10.72
2023-04-07T04:50:36.240Z,5.35
2023-04-07T04:53:07.818Z,8.00
2023-04-07T04:55:41.084Z,6.85
2023-04-07T04:58:12.768Z,7.45
2023-04-07T05:00:44.226Z,4.50
2023-04-07T05:03:16.092Z,4.67
2023-04-07T05:05:50.353Z,6.33
2023-04-07T05:08:21.924Z,7.00
2023-04-07T05:10:53.447Z,8.85
2023-04-07T05:13:25.849Z,6.08
2023-04-07T05:15:57.320Z,6.03
2023-04-07T05:18:28.791Z,6.58
2023-04-07T05:21:01.864Z,5.42
2023-04-07T05:23:33.357Z,8.73
2023-04-07T05:26:04.976Z,6.53
2023-04-07T05:28:36.825Z,4.28
2023-04-07T05:31:08.482Z,8.25
2023-04-07T05:33:40.233Z,5.05
2023-04-07T05:36:11.987Z,6.70
2023-04-07T05:38:43.541Z,6.00
2023-04-07T05:41:15.051Z,5.60
2023-04-07T05:43:46.513Z,12.33
2023-04-07T05:46:18.160Z,7.20
2023-04-07T05:48:49.721Z,4.87
2023-04-07T05:51:21.382Z,6.37
2023-04-07T05:53:53.158Z,5.78
2023-04-07T05:56:24.925Z,7.37
2023-04-07T05:58:56.839Z,4.87
2023-04-07T06:01:28.593Z,5.67
2023-04-07T06:04:00.766Z,5.45
2023-04-07T06:06:32.493Z,4.97
2023-04-07T06:09:05.760Z,5.78
2023-04-07T06:11:37.546Z,7.85
2023-04-07T06:14:09.053Z,9.40
2023-04-07T06:16:41.498Z,6.95
2023-04-07T06:19:13.114Z,8.53
2023-04-07T06:21:44.770Z,7.45
2023-04-07T06:24:16.364Z,6.42
2023-04-07T06:26:47.867Z,4.87
2023-04-07T06:29:19.453Z,6.50
2023-04-07T06:31:51.268Z,5.22
2023-04-07T06:34:22.853Z,5.60
2023-04-07T06:36:55.206Z,11.12
2023-04-07T06:39:28.985Z,5.33
2023-04-07T06:42:01.782Z,6.25
2023-04-07T06:44:33.330Z,7.65
2023-04-07T06:47:05.108Z,5.15
2023-04-07T06:49:37.389Z,5.35
2023-04-07T06:52:09.098Z,5.58
2023-04-07T06:54:40.578Z,6.03
2023-04-07T06:57:12.514Z,5.12
2023-04-07T06:59:43.937Z,6.87
2023-04-07T07:02:15.645Z,6.47
2023-04-07T07:04:47.305Z,5.92
2023-04-07T07:07:18.815Z,5.37
2023-04-07T07:09:50.238Z,5.35
2023-04-07T07:12:21.821Z,4.83
2023-04-07T07:14:53.372Z,4.65
2023-04-07T07:17:28.308Z,4.05
2023-04-07T07:19:59.915Z,7.12
2023-04-07T07:22:31.501Z,3.45
2023-04-07T07:25:03.455Z,6.33
2023-04-07T07:27:35.171Z,8.68
2023-04-07T07:30:09.525Z,3.67
2023-04-07T07:32:41.554Z,4.60
2023-04-07T07:35:13.195Z,7.47
2023-04-07T07:37:45.189Z,4.22
2023-04-07T07:40:16.712Z,5.70
2023-04-07T07:42:49.221Z,3.95
2023-04-07T07:45:20.858Z,4.05
2023-04-07T07:47:52.301Z,5.62
2023-04-07T07:50:24.010Z,6.85
2023-04-07T07:52:55.608Z,5.83
2023-04-07T07:55:27.208Z,6.55
2023-04-07T07:57:58.637Z,4.83
2023-04-07T08:00:30.744Z,5.40
2023-04-07T08:03:02.797Z,4.25
2023-04-07T08:05:34.781Z,5.00
2023-04-07T08:08:06.405Z,6.33
2023-04-07T08:10:37.921Z,3.65
2023-04-07T08:13:09.325Z,5.42
2023-04-07T08:15:41.683Z,3.83
2023-04-07T08:18:14.528Z,6.67
2023-04-07T08:20:46.776Z,5.03
2023-04-07T08:23:18.156Z,5.33
2023-04-07T08:25:51.201Z,17.37
2023-04-07T08:28:27.112Z,8.73
2023-04-07T08:30:58.760Z,6.80
2023-04-07T08:33:30.382Z,5.95
2023-04-07T08:36:02.054Z,7.03
2023-04-07T08:38:33.637Z,5.10
2023-04-07T08:41:11.644Z,5.53
2023-04-07T08:43:47.176Z,8.05
2023-04-07T08:46:22.198Z,7.12
2023-04-07T08:48:56.132Z,5.75
2023-04-07T08:51:31.605Z,6.45
2023-04-07T08:54:07.247Z,5.87
2023-04-07T08:56:41.393Z,6.53
2023-04-07T08:59:14.169Z,5.80
2023-04-07T09:01:46.842Z,5.70
2023-04-07T09:04:19.338Z,5.47
2023-04-07T09:06:51.810Z,4.03
2023-04-07T09:12:03.828Z,7.08
2023-04-07T09:14:35.342Z,4.87
2023-04-07T09:17:07.073Z,6.55
2023-04-07T09:19:38.587Z,8.70
2023-04-07T09:22:11.866Z,8.20
2023-04-07T09:24:43.771Z,5.42
2023-04-07T09:27:17.620Z,6.92
2023-04-07T09:29:49.957Z,9.50
2023-04-07T09:32:38.718Z,6.42
2023-04-07T09:35:11.553Z,7.58
2023-04-07T09:37:43.121Z,5.72
2023-04-07T09:40:16.920Z,11.78
2023-04-07T09:42:49.549Z,7.35
2023-04-07T09:45:34.739Z,6.58
2023-04-07T09:48:00.653Z,7.12
2023-04-07T09:50:36.827Z,7.12
2023-04-07T09:53:08.283Z,5.03
2023-04-07T09:55:41.318Z,7.67
2023-04-07T09:58:16.472Z,7.08
2023-04-07T10:00:49.103Z,7.10
2023-04-07T10:03:20.985Z,7.67
2023-04-07T10:05:54.106Z,7.12
2023-04-07T10:08:25.735Z,6.35
2023-04-07T10:10:58.610Z,6.15
2023-04-07T10:13:31.577Z,5.30
2023-04-07T10:16:05.804Z,5.10
2023-04-07T10:18:38.146Z,5.28
2023-04-07T10:21:12.953Z,4.90
2023-04-07T10:23:53.648Z,3.17
2023-04-07T10:26:28.418Z,5.97
2023-04-07T10:29:03.311Z,4.90
2023-04-07T10:31:35.627Z,4.60
2023-04-07T10:34:07.417Z,6.03
2023-04-07T10:36:49.950Z,5.35
2023-04-07T10:39:24.925Z,6.90
2023-04-07T10:41:57.164Z,6.62
2023-04-07T10:44:53.157Z,7.00
2023-04-07T10:47:24.631Z,5.47
2023-04-07T10:50:20.969Z,3.90
2023-04-07T10:53:07.398Z,5.33
2023-04-07T10:55:41.413Z,7.35
2023-04-07T10:58:23.265Z,3.42
2023-04-07T11:01:22.056Z,4.15
2023-04-07T11:04:01.712Z,4.28
2023-04-07T11:06:34.516Z,5.47
2023-04-07T11:09:05.969Z,8.95
2023-04-07T11:11:43.130Z,6.47
2023-04-07T11:14:27.455Z,4.15
2023-04-07T11:16:59.245Z,5.65
2023-04-07T11:19:31.344Z,5.58
2023-04-07T11:24:51.529Z,4.87
2023-04-07T11:27:22.956Z,5.47
2023-04-07T11:29:55.374Z,6.22
2023-04-07T11:32:28.480Z,5.65
2023-04-07T11:35:00.219Z,5.03
2023-04-07T11:37:32.271Z,6.17
2023-04-07T11:40:04.165Z,9.30
2023-04-07T11:42:36.475Z,3.83
2023-04-07T11:45:19.269Z,3.35
2023-04-07T11:47:51.359Z,3.60
2023-04-07T11:50:42.599Z,4.67
2023-04-07T11:55:44.155Z,5.05
2023-04-07T11:58:15.652Z,3.40
2023-04-07T12:00:57.222Z,5.53
2023-04-07T12:03:29.095Z,2.80
2023-04-07T12:06:00.726Z,3.47
2023-04-07T12:08:42.906Z,3.30
2023-04-07T12:11:14.756Z,4.33
2023-04-07T12:13:46.723Z,2.00
2023-04-07T12:16:19.188Z,2.62
2023-04-07T12:18:51.576Z,3.27
2023-04-07T12:21:24.172Z,3.02
2023-04-07T12:23:55.902Z,5.00
2023-04-07T12:26:27.578Z,2.10
2023-04-07T12:29:01.075Z,3.50
2023-04-07T12:31:32.964Z,2.45
2023-04-07T12:34:04.862Z,2.58
2023-04-07T12:36:36.555Z,3.33
2023-04-07T12:39:08.127Z,2.75
2023-04-07T12:41:39.738Z,2.67
2023-04-07T12:44:12.495Z,3.65
2023-04-07T12:46:44.111Z,3.17
2023-04-07T12:49:16.684Z,3.40
2023-04-07T12:51:48.069Z,2.33
2023-04-07T12:54:19.563Z,5.37
2023-04-07T12:56:51.651Z,2.25
2023-04-07T12:59:24.355Z,2.17
2023-04-07T13:01:56.335Z,2.25
2023-04-07T13:04:29.816Z,2.12
2023-04-07T13:07:03.236Z,2.35
2023-04-07T13:09:34.822Z,2.47
2023-04-07T13:12:06.408Z,2.62
2023-04-07T13:14:39.699Z,3.52
2023-04-07T13:17:11.602Z,2.30
2023-04-07T13:19:43.360Z,1.98
2023-04-07T13:22:18.241Z,3.08
2023-04-07T13:24:48.393Z,1.82
2023-04-07T13:27:19.886Z,3.02
2023-04-07T13:29:51.425Z,4.30
2023-04-07T13:32:23.678Z,2.55
2023-04-07T13:34:55.477Z,2.37
2023-04-07T13:37:27.466Z,2.80
2023-04-07T13:39:58.976Z,1.70
2023-04-07T13:42:30.495Z,2.80
2023-04-07T13:45:02.018Z,2.00
2023-04-07T13:47:34.635Z,2.40
2023-04-07T13:50:08.252Z,2.20
2023-04-07T13:52:39.933Z,1.80
2023-04-07T13:55:12.418Z,1.42
2023-04-07T13:57:43.899Z,2.05
2023-04-07T14:00:17.865Z,2.95
2023-04-07T14:02:50.616Z,1.50
2023-04-07T14:05:22.158Z,0.88
2023-04-07T14:07:54.454Z,2.60
2023-04-07T14:10:26.197Z,1.60
2023-04-07T14:12:57.700Z,1.40
2023-04-07T14:15:29.226Z,3.25
2023-04-07T14:18:01.436Z,1.12
2023-04-07T14:20:33.176Z,1.15
2023-04-07T14:23:04.726Z,1.80
2023-04-07T14:25:36.329Z,1.42
2023-04-07T14:28:09.645Z,1.47
2023-04-07T14:30:41.254Z,3.83
2023-04-07T14:33:12.891Z,1.77
2023-04-07T14:35:44.575Z,1.42
2023-04-07T14:38:16.154Z,1.32
2023-04-07T14:40:47.719Z,1.92
2023-04-07T14:43:19.369Z,0.95
2023-04-07T14:45:50.916Z,1.20
2023-04-07T14:48:23.281Z,1.40
2023-04-07T14:51:06.330Z,1.85
2023-04-07T14:53:28.461Z,1.95
2023-04-07T14:55:59.928Z,1.52
2023-04-07T14:58:31.493Z,1.55
2023-04-07T15:01:05.627Z,1.40
2023-04-07T15:03:36.667Z,1.05
2023-04-07T15:06:13.689Z,1.25
2023-04-07T15:08:45.741Z,0.70
2023-04-07T15:11:16.854Z,1.30
2023-04-07T15:13:48.674Z,1.37
2023-04-07T15:16:20.917Z,1.30
2023-04-07T15:18:52.546Z,2.70
2023-04-07T15:21:24.006Z,1.75
2023-04-07T15:23:55.506Z,1.37
2023-04-07T15:26:26.970Z,1.15
2023-04-07T15:28:58.431Z,1.77
2023-04-07T15:31:30.151Z,1.65
2023-04-07T15:34:01.804Z,1.17
2023-04-07T15:36:33.490Z,1.62
2023-04-07T15:39:06.659Z,1.72
2023-04-07T15:41:38.705Z,3.08
2023-04-07T15:44:10.326Z,4.83
2023-04-07T15:46:41.939Z,3.62
2023-04-07T15:49:13.807Z,4.90
2023-04-07T15:51:45.644Z,4.45
2023-04-07T15:54:17.066Z,3.08
2023-04-07T15:56:48.845Z,2.70
2023-04-07T15:59:37.634Z,2.80
2023-04-07T16:02:11.686Z,4.78
2023-04-07T16:04:44.504Z,2.47
2023-04-07T16:07:16.130Z,2.62
2023-04-07T16:09:47.706Z,2.05
2023-04-07T16:12:19.256Z,2.47
2023-04-07T16:14:50.925Z,3.12
2023-04-07T16:17:22.385Z,2.52
2023-04-07T16:19:53.961Z,1.42
2023-04-07T16:22:25.976Z,4.08
2023-04-07T16:24:59.234Z,2.27
2023-04-07T16:27:30.750Z,3.10
2023-04-07T16:30:02.323Z,3.45
2023-04-07T16:32:34.448Z,3.58
2023-04-07T16:35:07.181Z,1.90
2023-04-07T16:37:38.903Z,2.17
2023-04-07T16:40:12.695Z,2.52
2023-04-07T16:42:44.247Z,1.62
2023-04-07T16:45:15.870Z,2.00
2023-04-07T16:47:47.424Z,2.40
2023-04-07T16:50:19.188Z,1.35
2023-04-07T16:52:50.744Z,1.55
2023-04-07T16:55:22.501Z,1.57
2023-04-07T16:57:53.978Z,3.70
2023-04-07T17:00:25.428Z,2.02
2023-04-07T17:02:57.143Z,2.02
2023-04-07T17:05:29.097Z,2.08
2023-04-07T17:08:00.651Z,2.20
2023-04-07T17:10:32.664Z,2.50
2023-04-07T17:13:07.087Z,2.10
2023-04-07T17:15:38.800Z,2.90
2023-04-07T17:18:19.250Z,4.53
2023-04-07T17:20:54.140Z,3.30
2023-04-07T17:23:27.620Z,5.45
2023-04-07T17:25:59.290Z,2.45
2023-04-07T17:28:30.971Z,1.75
2023-04-07T17:31:03.109Z,2.20
2023-04-07T17:33:35.174Z,4.72
2023-04-07T17:36:07.407Z,1.45
2023-04-07T17:38:39.060Z,1.15
2023-04-07T17:41:10.753Z,2.62
2023-04-07T17:43:42.247Z,1.07
2023-04-07T17:46:13.790Z,1.35
2023-04-07T17:48:45.416Z,2.62
2023-04-07T17:51:17.213Z,1.60
2023-04-07T17:53:48.978Z,1.37
2023-04-07T17:56:21.082Z,2.62
2023-04-07T17:58:52.718Z,2.08
2023-04-07T18:01:24.355Z,1.92
2023-04-07T18:03:55.979Z,1.50
2023-04-07T18:06:28.402Z,1.62
2023-04-07T18:09:00.730Z,1.98
2023-04-07T18:11:32.975Z,2.37
2023-04-07T18:14:04.556Z,1.65
2023-04-07T18:16:36.720Z,0.98
2023-04-07T18:19:08.353Z,2.05
2023-04-07T18:21:40.008Z,1.52
2023-04-07T18:24:11.508Z,2.20
2023-04-07T18:26:44.390Z,1.95
2023-04-07T18:29:16.230Z,2.02
2023-04-07T18:31:48.010Z,1.25
2023-04-07T18:34:19.653Z,2.02
2023-04-07T18:36:55.398Z,2.10
2023-04-07T18:39:28.292Z,2.00
2023-04-07T18:41:59.964Z,2.12
2023-04-07T18:44:31.362Z,2.02
2023-04-07T18:47:03.037Z,2.52
2023-04-07T18:49:34.796Z,4.45
2023-04-07T18:52:06.439Z,2.65
2023-04-07T18:54:38.069Z,2.50
2023-04-07T18:57:09.632Z,2.27
2023-04-07T19:02:25.680Z,2.00
2023-04-07T19:07:35.335Z,6.45
2023-04-07T19:10:09.231Z,5.95
2023-04-07T19:12:40.917Z,3.15
2023-04-07T19:15:13.337Z,3.05
2023-04-07T19:17:45.289Z,3.58
2023-04-07T19:20:16.805Z,3.15
2023-04-07T19:22:48.402Z,3.50
2023-04-07T19:25:20.008Z,3.85
2023-04-07T19:27:52.063Z,3.37
2023-04-07T19:30:23.771Z,3.22
2023-04-07T19:32:56.650Z,2.90
2023-04-07T19:35:28.042Z,2.37
2023-04-07T19:38:00.035Z,3.47
2023-04-07T19:40:33.438Z,2.25
2023-04-07T19:43:04.969Z,1.80
2023-04-07T19:45:36.520Z,1.67
2023-04-07T19:48:08.096Z,2.30
2023-04-07T19:50:41.611Z,3.12
2023-04-07T19:53:16.269Z,1.72
2023-04-07T19:55:48.593Z,1.77
2023-04-07T19:58:21.727Z,2.33
2023-04-07T20:00:53.944Z,1.92
2023-04-07T20:03:25.615Z,2.05
2023-04-07T20:05:57.093Z,5.28
2023-04-07T20:08:28.605Z,5.05
2023-04-07T20:11:00.112Z,2.40
2023-04-07T20:13:33.042Z,2.83
2023-04-07T20:16:04.581Z,2.85
2023-04-07T20:18:36.544Z,3.25
2023-04-07T20:21:09.884Z,2.00
2023-04-07T20:23:41.522Z,4.28
2023-04-07T20:26:12.972Z,2.65
2023-04-07T20:28:44.419Z,2.30
2023-04-07T20:31:16.355Z,4.10
2023-04-07T20:33:47.882Z,3.27
2023-04-07T20:36:19.536Z,6.45
2023-04-07T20:38:51.423Z,3.12
2023-04-07T20:41:23.899Z,3.33
2023-04-07T20:43:55.963Z,4.53
2023-04-07T20:46:27.666Z,2.87
2023-04-07T20:48:59.375Z,3.15
2023-04-07T20:51:31.170Z,2.98
2023-04-07T20:54:02.728Z,3.40
2023-04-07T20:56:34.525Z,3.85
2023-04-07T20:59:06.198Z,3.15
2023-04-07T21:01:38.499Z,3.20
2023-04-07T21:04:10.760Z,21.50
2023-04-07T21:06:42.809Z,9.28
2023-04-07T21:09:14.367Z,6.40
2023-04-07T21:11:45.836Z,7.58
2023-04-07T21:14:17.412Z,11.45
2023-04-07T21:16:48.954Z,8.30
2023-04-07T21:19:20.588Z,7.00
2023-04-07T21:21:52.120Z,3.85
2023-04-07T21:24:23.899Z,3.77
2023-04-07T21:26:55.987Z,4.95
2023-04-07T21:29:30.329Z,8.18
2023-04-07T21:32:01.904Z,9.75
2023-04-07T21:34:33.392Z,8.20
2023-04-07T21:37:05.043Z,11.12
2023-04-07T21:39:37.244Z,3.52
2023-04-07T21:42:08.867Z,3.92
2023-04-07T21:44:40.451Z,4.60
2023-04-07T21:47:12.715Z,4.08
2023-04-07T21:49:44.236Z,4.25
2023-04-07T21:52:17.419Z,2.52
2023-04-07T21:54:48.838Z,3.10
2023-04-07T21:57:20.452Z,2.72
2023-04-07T21:59:51.967Z,2.87
2023-04-07T22:02:23.764Z,4.55
2023-04-07T22:04:55.418Z,3.67
2023-04-07T22:07:26.940Z,3.92
2023-04-07T22:09:59.586Z,4.00
2023-04-07T22:12:31.349Z,3.60
2023-04-07T22:15:03.180Z,3.00
2023-04-07T22:17:34.736Z,3.55
2023-04-07T22:20:07.978Z,3.00
2023-04-07T22:22:39.625Z,3.52
2023-04-07T22:25:11.741Z,2.85
2023-04-07T22:27:43.298Z,2.75
2023-04-07T22:30:14.856Z,3.05
2023-04-07T22:32:46.680Z,4.62
2023-04-07T22:35:19.023Z,3.40
2023-04-07T22:37:51.110Z,4.10
2023-04-07T22:40:23.159Z,4.58
2023-04-07T22:42:54.763Z,4.10
2023-04-07T22:45:26.161Z,5.00
2023-04-07T22:47:57.749Z,3.30
2023-04-07T22:50:29.323Z,4.35
2023-04-07T22:53:01.665Z,4.40
2023-04-07T22:55:33.033Z,3.35
2023-04-07T22:58:04.701Z,2.85
2023-04-07T23:00:36.160Z,3.15
2023-04-07T23:03:07.842Z,2.95
2023-04-07T23:05:39.650Z,5.90
2023-04-07T23:08:11.201Z,2.98
2023-04-07T23:10:42.643Z,3.75
2023-04-07T23:13:15.402Z,3.52
2023-04-07T23:15:47.888Z,2.72
2023-04-07T23:18:19.518Z,5.05
2023-04-07T23:20:54.158Z,3.52
2023-04-07T23:23:25.736Z,7.20
2023-04-07T23:25:57.255Z,5.22
2023-04-07T23:28:28.995Z,5.85
2023-04-07T23:31:02.041Z,5.50
2023-04-07T23:33:33.754Z,8.33
2023-04-07T23:36:05.635Z,10.80
2023-04-07T23:38:39.105Z,5.30
2023-04-07T23:41:10.737Z,5.25
2023-04-07T23:43:42.686Z,4.08
2023-04-07T23:46:14.357Z,3.87
2023-04-07T23:48:45.821Z,4.65
2023-04-07T23:51:17.323Z,5.10
2023-04-07T23:53:48.736Z,4.95
2023-04-07T23:56:20.240Z,4.62
2023-04-07T23:58:51.825Z,5.10
